createdAt,value
2022-09-28T00:06:46.345Z,962.7
2022-09-28T00:21:17.326Z,962.5
2022-09-28T00:35:50.388Z,962.5
2022-09-28T00:50:21.427Z,962.4
2022-09-28T01:04:53.006Z,962.4
2022-09-28T01:19:23.792Z,962.3
2022-09-28T01:33:53.979Z,962.2
2022-09-28T01:48:25.268Z,962.2
2022-09-28T02:02:55.950Z,962.2
2022-09-28T02:17:26.329Z,962.1
2022-09-28T02:31:56.205Z,962.1
2022-09-28T02:46:27.421Z,962.2
2022-09-28T03:00:58.503Z,962.2
2022-09-28T03:15:31.001Z,962.2
2022-09-28T03:30:01.557Z,962.3
2022-09-28T03:44:32.625Z,962.3
2022-09-28T03:59:03.390Z,962.3
2022-09-28T04:13:34.699Z,962.3
2022-09-28T04:28:04.457Z,962.3
2022-09-28T04:42:35.875Z,962.3
2022-09-28T04:57:06.899Z,962.4
2022-09-28T05:11:38.865Z,962.4
2022-09-28T05:26:09.922Z,962.4
2022-09-28T05:40:47.819Z,962.4
2022-09-28T05:55:14.177Z,962.5
2022-09-28T06:09:50.272Z,962.6
2022-09-28T06:24:24.156Z,962.7
2022-09-28T06:38:58.279Z,962.9
2022-09-28T06:53:25.906Z,962.8
2022-09-28T07:07:56.543Z,962.9
2022-09-28T07:22:44.115Z,963.2
2022-09-28T07:37:06.112Z,963.3
2022-09-28T07:51:38.105Z,963.4
2022-09-28T08:06:10.189Z,963.6
2022-09-28T08:20:38.735Z,963.7
2022-09-28T08:35:08.887Z,963.8
2022-09-28T08:49:40.437Z,963.9
2022-09-28T09:04:13.134Z,964
2022-09-28T09:18:43.764Z,964.3
2022-09-28T09:33:14.838Z,964.4
2022-09-28T09:47:44.097Z,964.4
2022-09-28T10:02:15.719Z,964.5
2022-09-28T10:16:45.796Z,964.6
2022-09-28T10:31:16.465Z,964.7
2022-09-28T10:45:48.462Z,964.7
2022-09-28T11:00:19.598Z,964.9
2022-09-28T11:14:50.120Z,965
2022-09-28T11:29:22.865Z,965
2022-09-28T11:43:52.943Z,965.1
2022-09-28T11:58:25.548Z,965.1
2022-09-28T12:12:56.084Z,965.1
2022-09-28T12:27:28.852Z,965.1
2022-09-28T12:42:00.986Z,965
2022-09-28T12:56:30.197Z,965
2022-09-28T13:11:08.320Z,965
2022-09-28T13:25:36.000Z,965
2022-09-28T13:40:06.720Z,965.1
2022-09-28T13:54:45.884Z,965.2
2022-09-28T14:09:12.732Z,965.1
2022-09-28T14:23:44.066Z,965
2022-09-28T14:38:15.670Z,965.1
2022-09-28T14:52:47.140Z,965.2
2022-09-28T15:07:18.787Z,965.3
2022-09-28T15:21:49.189Z,965.2
2022-09-28T15:36:21.048Z,965.3
2022-09-28T15:50:52.308Z,965.3
2022-09-28T16:05:23.394Z,965.4
2022-09-28T16:19:53.500Z,965.5
2022-09-28T16:34:25.664Z,965.6
2022-09-28T16:48:56.772Z,965.6
2022-09-28T17:03:34.530Z,965.8
2022-09-28T17:18:08.381Z,965.9
2022-09-28T17:32:42.151Z,966.2
2022-09-28T17:47:15.458Z,966.6
2022-09-28T18:01:41.517Z,966.4
2022-09-28T18:16:12.502Z,966.4
2022-09-28T18:30:44.854Z,966.4
2022-09-28T18:45:21.881Z,966.5
2022-09-28T18:59:54.402Z,966.7
2022-09-28T19:14:21.374Z,966.8
2022-09-28T19:28:51.288Z,966.8
2022-09-28T19:43:22.491Z,966.9
2022-09-28T19:57:53.236Z,967.1
2022-09-28T20:12:23.632Z,967.1
2022-09-28T20:26:53.955Z,967.3
2022-09-28T20:41:25.208Z,967.3
2022-09-28T20:55:53.964Z,967.2
2022-09-28T21:10:25.721Z,967.3
2022-09-28T21:24:57.258Z,967.3
2022-09-28T21:39:29.074Z,967.3
2022-09-28T21:54:04.007Z,967.3
2022-09-28T22:08:32.995Z,967.4
2022-09-28T22:23:02.863Z,967.4
2022-09-28T22:37:32.031Z,967.3
2022-09-28T22:52:03.173Z,967.4
2022-09-28T23:06:32.725Z,967.3
2022-09-28T23:21:02.474Z,967.3
2022-09-28T23:35:33.671Z,967.4
2022-09-28T23:50:04.244Z,967.4
